Time;durP1;ratioP1;P1;durP2;ratioP2;P2;SDS_P1;SDS_P2;PMS_P1;PMS_P2;Temp;Humidity;BMP_temperature;BMP_pressure;BME280_temperature;BME280_humidity;BME280_pressure;Samples;Min_cycle;Max_cycle;Signal;HPM_P1;HPM_P2
2023/08/14 00:02:44;;;;;;;0.10;0.10;;;;;;;17.12;100.00;96645.63;5022084;28;20040;-80
2023/08/14 00:05:32;;;;;;;0.10;0.10;;;;;;;16.99;100.00;96638.97;5022991;28;20067;-81
2023/08/14 00:08:19;;;;;;;0.10;0.10;;;;;;;16.92;100.00;96637.69;5024753;28;20041;-82
2023/08/14 00:11:05;;;;;;;0.10;0.10;;;;;;;16.68;100.00;96641.09;5025031;28;20063;-82
2023/08/14 00:13:53;;;;;;;0.10;0.10;;;;;;;16.63;100.00;96653.84;5022307;28;20095;-82
2023/08/14 00:16:41;;;;;;;0.20;0.20;;;;;;;16.66;100.00;96639.78;5022821;28;20151;-79
2023/08/14 00:19:27;;;;;;;0.10;0.10;;;;;;;16.59;100.00;96632.00;5024999;28;20064;-81
2023/08/14 00:22:13;;;;;;;0.00;0.00;;;;;;;16.55;100.00;96646.34;5022460;28;20053;-81
2023/08/14 00:24:59;;;;;;;0.00;0.00;;;;;;;16.51;100.00;96642.59;5006840;28;20132;-81
2023/08/14 00:27:47;;;;;;;0.10;0.10;;;;;;;16.54;100.00;96644.72;5021512;28;20826;-80
2023/08/14 00:30:33;;;;;;;0.00;0.00;;;;;;;16.49;100.00;96637.47;5016063;28;20052;-82
2023/08/14 00:33:19;;;;;;;0.10;0.10;;;;;;;16.53;100.00;96626.91;5020966;28;20050;-82
2023/08/14 00:36:06;;;;;;;0.10;0.10;;;;;;;16.56;100.00;96634.44;5016568;28;20182;-82
2023/08/14 00:38:51;;;;;;;0.08;0.08;;;;;;;16.53;100.00;96626.91;5022596;28;20037;-83
2023/08/14 00:41:37;;;;;;;0.10;0.10;;;;;;;16.22;100.00;96626.34;5009975;28;20143;-80
2023/08/14 00:44:23;;;;;;;0.10;0.10;;;;;;;16.23;100.00;96628.75;5021775;28;20037;-81
2023/08/14 00:47:09;;;;;;;0.10;0.10;;;;;;;16.30;100.00;96636.53;5023487;28;20048;-82
2023/08/14 00:49:55;;;;;;;0.10;0.10;;;;;;;16.37;100.00;96632.44;5022639;28;20037;-82
2023/08/14 00:52:47;;;;;;;0.10;0.10;;;;;;;16.48;100.00;96624.25;5008402;28;20041;-82
2023/08/14 00:55:33;;;;;;;0.08;0.08;;;;;;;16.34;100.00;96630.31;5009605;28;20041;-82
2023/08/14 00:58:19;;;;;;;0.10;0.10;;;;;;;16.25;100.00;96626.56;5020178;28;20556;-82
2023/08/14 01:01:08;;;;;;;0.10;0.10;;;;;;;16.38;100.00;96631.34;5021389;28;20088;-80
2023/08/14 01:03:54;;;;;;;0.10;0.10;;;;;;;16.46;100.00;96621.03;5008247;28;20040;-80
2023/08/14 01:06:40;;;;;;;0.10;0.10;;;;;;;16.34;100.00;96622.22;5024267;28;20862;-81
2023/08/14 01:09:26;;;;;;;0.10;0.10;;;;;;;16.33;100.00;96623.25;5022553;28;20053;-79
2023/08/14 01:12:37;;;;;;;0.10;0.10;;;;;;;16.12;100.00;96621.81;5009735;28;20131;-81
2023/08/14 01:15:36;;;;;;;0.10;0.10;;;;;;;16.05;100.00;96624.00;5022006;28;20092;-82
2023/08/14 01:18:26;;;;;;;0.00;0.00;;;;;;;15.81;100.00;96623.88;5020551;28;20064;-80
2023/08/14 01:21:15;;;;;;;0.10;0.10;;;;;;;15.93;100.00;96616.22;5022314;28;20044;-81
2023/08/14 01:24:19;;;;;;;0.10;0.10;;;;;;;16.03;100.00;96613.50;5009878;28;20037;-81
2023/08/14 01:27:06;;;;;;;0.10;0.10;;;;;;;16.06;100.00;96618.31;5012755;28;20103;-79
2023/08/14 01:29:58;;;;;;;0.13;0.13;;;;;;;15.98;100.00;96604.63;5014853;28;20087;-82
2023/08/14 01:32:44;;;;;;;0.10;0.10;;;;;;;15.87;100.00;96610.09;5011221;28;20108;-80
2023/08/14 01:35:38;;;;;;;0.10;0.10;;;;;;;15.67;100.00;96602.09;5006849;28;20033;-82
2023/08/14 01:38:49;;;;;;;0.10;0.10;;;;;;;15.53;100.00;96598.34;5014039;28;20756;-81
2023/08/14 01:42:02;;;;;;;0.10;0.10;;;;;;;15.40;100.00;96597.03;5015362;28;20148;-80
2023/08/14 01:44:53;;;;;;;0.10;0.10;;;;;;;15.51;100.00;96600.50;5022771;28;20116;-81
2023/08/14 01:47:42;;;;;;;0.10;0.10;;;;;;;15.35;100.00;96596.25;5011597;28;20042;-79
2023/08/14 01:50:29;;;;;;;0.03;0.03;;;;;;;15.35;100.00;96601.66;5012799;28;20049;-81
2023/08/14 01:53:16;;;;;;;0.10;0.10;;;;;;;15.43;100.00;96599.19;5022957;28;20040;-81
2023/08/14 01:56:03;;;;;;;0.10;0.10;;;;;;;15.50;100.00;96593.50;5037193;28;20148;-81
2023/08/14 01:58:48;;;;;;;0.10;0.10;;;;;;;15.50;100.00;96588.91;5022618;28;20504;-81
2023/08/14 02:01:34;;;;;;;0.10;0.10;;;;;;;15.39;100.00;96594.59;5023370;28;20037;-79
2023/08/14 02:04:20;;;;;;;0.10;0.10;;;;;;;15.29;100.00;96588.19;5025655;28;20045;-83
2023/08/14 02:07:06;;;;;;;0.10;0.10;;;;;;;15.28;100.00;96585.75;5019841;28;20592;-83
2023/08/14 02:09:52;;;;;;;0.10;0.10;;;;;;;15.36;100.00;96582.50;5005019;28;20573;-83
2023/08/14 02:12:40;;;;;;;0.10;0.10;;;;;;;15.50;100.00;96577.31;5008680;28;20041;-83
2023/08/14 02:15:30;;;;;;;0.03;0.03;;;;;;;15.69;100.00;96575.63;5010656;28;20048;-80
2023/08/14 02:18:16;;;;;;;0.00;0.00;;;;;;;15.77;100.00;96575.03;5010450;28;20803;-81
2023/08/14 02:21:02;;;;;;;0.10;0.10;;;;;;;15.79;100.00;96562.06;5008968;28;20500;-81
2023/08/14 02:23:50;;;;;;;0.10;0.10;;;;;;;15.86;100.00;96565.28;5006371;28;20049;-83
2023/08/14 02:26:36;;;;;;;0.00;0.00;;;;;;;15.79;100.00;96564.78;5026270;28;20557;-83
2023/08/14 02:29:22;;;;;;;0.10;0.10;;;;;;;15.76;100.00;96561.84;5021518;28;20045;-84
2023/08/14 02:32:08;;;;;;;0.10;0.10;;;;;;;15.84;100.00;96556.66;5011422;28;20037;-83
2023/08/14 02:34:54;;;;;;;0.10;0.10;;;;;;;15.83;100.00;96555.06;5011347;28;20473;-81
2023/08/14 02:37:39;;;;;;;0.10;0.10;;;;;;;15.85;100.00;96550.16;5023726;28;20540;-81
2023/08/14 02:40:26;;;;;;;0.10;0.10;;;;;;;15.64;100.00;96537.06;5017508;28;20424;-80
2023/08/14 02:43:12;;;;;;;0.10;0.10;;;;;;;15.49;100.00;96537.97;5025075;28;20037;-83
2023/08/14 02:45:58;;;;;;;0.10;0.10;;;;;;;15.41;100.00;96542.03;5023227;28;20147;-83
2023/08/14 02:48:45;;;;;;;0.00;0.00;;;;;;;15.24;100.00;96542.38;5013883;28;20350;-81
2023/08/14 02:51:31;;;;;;;0.10;0.10;;;;;;;15.19;100.00;96550.50;5016004;28;20835;-83
2023/08/14 02:54:17;;;;;;;0.10;0.10;;;;;;;15.04;100.00;96540.56;5004523;28;20041;-82
2023/08/14 02:57:02;;;;;;;0.10;0.10;;;;;;;15.12;100.00;96546.47;5022879;28;20033;-80
2023/08/14 02:59:48;;;;;;;0.10;0.10;;;;;;;15.09;100.00;96542.41;5022042;28;20124;-81
2023/08/14 03:02:34;;;;;;;0.10;0.10;;;;;;;15.07;100.00;96547.28;5012146;28;20029;-81
2023/08/14 03:05:20;;;;;;;0.10;0.10;;;;;;;15.02;100.00;96533.84;5022656;28;20501;-80
2023/08/14 03:08:06;;;;;;;0.10;0.10;;;;;;;15.03;100.00;96541.66;5012038;28;20467;-82
2023/08/14 03:10:52;;;;;;;0.08;0.08;;;;;;;14.98;100.00;96546.25;5012520;28;20041;-81
2023/08/14 03:13:38;;;;;;;0.10;0.10;;;;;;;14.96;100.00;96548.41;5025355;28;20096;-83
2023/08/14 03:16:24;;;;;;;0.10;0.10;;;;;;;14.89;100.00;96543.31;5010919;28;20037;-82
2023/08/14 03:19:10;;;;;;;0.10;0.10;;;;;;;14.98;100.00;96538.16;5014025;28;20037;-82
2023/08/14 03:21:56;;;;;;;0.10;0.10;;;;;;;15.03;100.00;96544.34;5024207;28;20037;-82
2023/08/14 03:24:42;;;;;;;0.00;0.00;;;;;;;14.93;100.00;96536.28;5015395;28;20053;-80
2023/08/14 03:27:27;;;;;;;0.10;0.10;;;;;;;14.88;100.00;96538.19;5023552;28;20033;-82
2023/08/14 03:30:13;;;;;;;0.10;0.10;;;;;;;14.91;100.00;96538.44;5023594;28;20433;-82
2023/08/14 03:32:59;;;;;;;0.10;0.10;;;;;;;14.88;100.00;96540.88;5014673;28;20786;-82
2023/08/14 03:35:46;;;;;;;0.10;0.10;;;;;;;14.86;100.00;96534.94;5025977;28;20045;-80
2023/08/14 03:38:34;;;;;;;0.00;0.00;;;;;;;14.84;100.00;96521.75;5013504;28;20611;-82
2023/08/14 03:41:20;;;;;;;0.10;0.10;;;;;;;14.99;100.00;96531.69;5010314;28;20135;-81
2023/08/14 03:44:06;;;;;;;0.00;0.00;;;;;;;15.14;100.00;96526.25;5009831;28;20477;-81
2023/08/14 03:46:52;;;;;;;0.10;0.10;;;;;;;15.10;100.00;96521.66;5009807;28;20060;-82
2023/08/14 03:49:37;;;;;;;0.10;0.10;;;;;;;15.05;100.00;96519.81;5013501;28;20037;-81
2023/08/14 03:52:23;;;;;;;0.10;0.10;;;;;;;15.09;100.00;96517.34;5023057;28;20041;-81
2023/08/14 03:55:09;;;;;;;0.10;0.10;;;;;;;15.21;100.00;96513.28;5007348;28;20037;-80
2023/08/14 03:57:56;;;;;;;0.10;0.10;;;;;;;15.37;100.00;96505.13;5023536;28;20033;-80
2023/08/14 04:00:42;;;;;;;0.10;0.10;;;;;;;15.47;100.00;96511.25;5014521;28;20029;-82
2023/08/14 04:03:28;;;;;;;0.10;0.10;;;;;;;15.59;100.00;96508.22;5024067;28;20044;-82
2023/08/14 04:06:14;;;;;;;0.10;0.10;;;;;;;15.69;100.00;96515.47;5021627;28;20119;-81
2023/08/14 04:09:01;;;;;;;0.10;0.10;;;;;;;15.64;100.00;96519.03;5024397;28;20143;-81
2023/08/14 04:11:47;;;;;;;0.10;0.10;;;;;;;15.84;100.00;96518.88;5014291;28;20056;-81
2023/08/14 04:14:33;;;;;;;0.15;0.15;;;;;;;15.81;100.00;96507.84;5022573;28;20033;-82
2023/08/14 04:17:19;;;;;;;0.10;0.10;;;;;;;15.83;100.00;96505.69;5024500;28;20041;-82
2023/08/14 04:20:05;;;;;;;0.10;0.10;;;;;;;15.92;100.00;96516.69;5023314;28;20147;-82
2023/08/14 04:22:51;;;;;;;0.10;0.10;;;;;;;15.92;100.00;96503.19;5013955;28;20557;-83
2023/08/14 04:25:37;;;;;;;0.10;0.10;;;;;;;15.77;100.00;96509.50;5013361;28;20049;-80
2023/08/14 04:28:24;;;;;;;0.10;0.10;;;;;;;15.72;100.00;96499.56;5011789;28;20161;-82
2023/08/14 04:31:10;;;;;;;0.00;0.00;;;;;;;15.77;100.00;96507.59;5014279;28;20052;-81
2023/08/14 04:33:56;;;;;;;0.10;0.10;;;;;;;15.92;100.00;96508.59;5015883;28;20449;-81
2023/08/14 04:36:42;;;;;;;0.10;0.10;;;;;;;15.90;100.00;96508.06;5016238;28;20045;-82
2023/08/14 04:39:28;;;;;;;0.10;0.10;;;;;;;16.09;100.00;96500.88;5003193;28;20102;-81
2023/08/14 04:42:15;;;;;;;0.10;0.10;;;;;;;16.25;100.00;96496.97;5023500;28;20129;-82
2023/08/14 04:45:04;;;;;;;0.13;0.13;;;;;;;16.41;100.00;96511.94;5015255;28;20127;-80
2023/08/14 04:47:50;;;;;;;0.10;0.10;;;;;;;16.41;100.00;96505.75;5024343;28;20280;-79
2023/08/14 04:50:37;;;;;;;0.10;0.10;;;;;;;16.42;100.00;96516.28;5012134;28;20048;-80
2023/08/14 04:53:23;;;;;;;0.10;0.10;;;;;;;16.32;100.00;96508.25;5008502;28;20055;-82
2023/08/14 04:56:10;;;;;;;0.10;0.10;;;;;;;16.28;100.00;96501.03;5002625;28;20041;-81
2023/08/14 04:58:56;;;;;;;0.00;0.00;;;;;;;16.14;100.00;96500.84;5012131;28;20041;-81
2023/08/14 05:01:42;;;;;;;0.10;0.10;;;;;;;16.21;100.00;96501.34;5007995;28;20436;-81
2023/08/14 05:04:28;;;;;;;0.10;0.10;;;;;;;16.10;100.00;96495.19;5010620;28;20564;-81
2023/08/14 05:07:14;;;;;;;0.10;0.10;;;;;;;16.14;100.00;96503.56;5009344;28;20465;-81
2023/08/14 05:10:00;;;;;;;0.05;0.05;;;;;;;16.25;100.00;96505.06;5022486;28;20037;-82
2023/08/14 05:12:47;;;;;;;0.10;0.10;;;;;;;16.28;100.00;96501.03;5014123;28;20116;-82
2023/08/14 05:15:33;;;;;;;0.10;0.10;;;;;;;16.40;100.00;96515.75;5010235;28;20040;-83
2023/08/14 05:18:19;;;;;;;0.10;0.10;;;;;;;16.59;100.00;96517.75;5022603;28;20456;-81
2023/08/14 05:21:05;;;;;;;0.10;0.10;;;;;;;16.74;100.00;96517.63;5011128;28;20037;-81
2023/08/14 05:23:51;;;;;;;0.20;0.20;;;;;;;16.82;100.00;96510.78;5009042;28;20476;-82
2023/08/14 05:26:37;;;;;;;0.15;0.15;;;;;;;16.90;100.00;96515.56;5011303;28;20350;-82
2023/08/14 05:29:23;;;;;;;0.08;0.08;;;;;;;16.88;100.00;96518.53;5024226;28;20354;-81
2023/08/14 05:32:08;;;;;;;0.10;0.10;;;;;;;16.87;100.00;96525.03;5022049;28;20136;-83
2023/08/14 05:34:54;;;;;;;0.10;0.10;;;;;;;16.79;100.00;96525.66;5023179;28;20033;-83
2023/08/14 05:37:40;;;;;;;0.10;0.10;;;;;;;16.64;100.00;96528.47;5023089;28;20043;-81
2023/08/14 05:40:26;;;;;;;0.10;0.10;;;;;;;16.70;100.00;96519.28;5025793;28;20044;-81
2023/08/14 05:43:12;;;;;;;0.10;0.10;;;;;;;16.80;100.00;96524.56;5021989;28;20037;-83
2023/08/14 05:45:58;;;;;;;0.10;0.10;;;;;;;17.18;100.00;96530.91;5012216;28;20535;-83
2023/08/14 05:48:44;;;;;;;0.10;0.10;;;;;;;17.61;100.00;96517.38;5026144;28;20049;-81
2023/08/14 05:51:30;;;;;;;0.10;0.10;;;;;;;17.71;100.00;96522.69;5012737;28;20469;-83
2023/08/14 05:54:16;;;;;;;0.10;0.10;;;;;;;17.87;100.00;96520.56;5024703;28;20128;-81
2023/08/14 05:57:02;;;;;;;0.10;0.10;;;;;;;17.93;100.00;96527.50;5022197;28;20365;-82
2023/08/14 05:59:48;;;;;;;0.00;0.00;;;;;;;17.72;100.00;96515.38;5014923;28;20425;-81
2023/08/14 06:02:34;;;;;;;0.10;0.10;;;;;;;17.66;100.00;96514.59;5025857;28;20048;-83
2023/08/14 06:05:20;;;;;;;0.00;0.00;;;;;;;17.55;100.00;96505.81;5026998;28;20102;-85
2023/08/14 06:08:06;;;;;;;0.10;0.10;;;;;;;17.55;100.00;96507.72;5000958;28;20111;-83
2023/08/14 06:10:52;;;;;;;0.17;0.17;;;;;;;17.66;100.00;96514.59;5027726;28;20091;-83
2023/08/14 06:13:37;;;;;;;0.10;0.10;;;;;;;17.74;100.00;96518.56;5026881;28;20271;-84
2023/08/14 06:16:23;;;;;;;0.10;0.10;;;;;;;17.82;100.00;96523.34;5023933;28;20534;-83
2023/08/14 06:19:09;;;;;;;0.10;0.10;;;;;;;17.85;100.00;96530.88;5013967;28;20048;-82
2023/08/14 06:21:55;;;;;;;0.10;0.10;;;;;;;17.76;100.00;96517.19;5026591;28;20040;-82
2023/08/14 06:24:41;;;;;;;0.10;0.10;;;;;;;17.75;100.00;96518.31;5003153;28;20549;-85
2023/08/14 06:27:29;;;;;;;0.10;0.10;;;;;;;17.71;100.00;96528.09;5013778;28;20049;-85
2023/08/14 06:30:15;;;;;;;0.10;0.10;;;;;;;17.83;100.00;96532.28;5026127;28;20032;-82
2023/08/14 06:33:03;;;;;;;0.10;0.10;;;;;;;18.04;100.00;96534.38;5027108;28;20033;-84
2023/08/14 06:35:49;;;;;;;0.10;0.10;;;;;;;18.16;100.00;96528.50;5013005;28;20033;-81
2023/08/14 06:38:35;;;;;;;0.10;0.10;;;;;;;18.40;100.00;96517.56;5026115;28;20124;-82
2023/08/14 06:41:21;;;;;;;0.10;0.10;;;;;;;18.83;100.00;96520.06;5024063;28;20102;-82
2023/08/14 06:44:08;;;;;;;0.20;0.20;;;;;;;19.07;100.00;96509.88;5012851;28;20038;-83
2023/08/14 06:46:54;;;;;;;0.20;0.20;;;;;;;19.10;100.00;96500.31;5029764;28;20719;-84
2023/08/14 06:49:40;;;;;;;0.10;0.10;;;;;;;18.70;100.00;96507.31;5035004;28;20033;-84
2023/08/14 06:52:26;;;;;;;0.20;0.20;;;;;;;18.58;100.00;96516.69;5034006;28;20471;-84
2023/08/14 06:55:12;;;;;;;0.10;0.10;;;;;;;18.58;100.00;96516.69;5027331;28;20037;-84
2023/08/14 06:57:58;;;;;;;0.10;0.10;;;;;;;18.44;100.00;96518.56;5013745;28;20547;-84
2023/08/14 07:00:48;;;;;;;0.10;0.10;;;;;;;18.41;100.00;96515.66;5026643;28;20055;-83
2023/08/14 07:03:33;;;;;;;0.10;0.10;;;;;;;18.41;100.00;96516.44;5025881;28;20493;-82
2023/08/14 07:06:19;;;;;;;0.10;0.10;;;;;;;18.47;100.00;96515.28;5026693;28;22479;-84
2023/08/14 07:09:05;;;;;;;0.10;0.10;;;;;;;18.64;100.00;96501.16;4998820;28;20140;-84
2023/08/14 07:11:51;;;;;;;0.10;0.10;;;;;;;18.61;100.00;96494.44;5019490;28;20409;-84
2023/08/14 07:14:37;;;;;;;0.10;0.10;;;;;;;18.64;100.00;96487.59;5027785;28;20029;-83
2023/08/14 07:17:23;;;;;;;0.10;0.10;;;;;;;18.67;100.00;96480.81;5026347;28;20037;-81
2023/08/14 07:20:09;;;;;;;0.10;0.10;;;;;;;18.74;100.00;96470.38;5017916;28;20045;-84
2023/08/14 07:22:55;;;;;;;0.10;0.10;;;;;;;18.94;100.00;96475.41;5025811;28;20044;-83
2023/08/14 07:25:41;;;;;;;0.10;0.10;;;;;;;19.02;100.00;96479.31;5013281;28;20116;-84
2023/08/14 07:28:27;;;;;;;0.10;0.10;;;;;;;19.06;100.00;96481.13;5015550;28;20151;-83
2023/08/14 07:31:13;;;;;;;0.10;0.10;;;;;;;19.28;100.00;96483.13;5025802;28;20490;-81
2023/08/14 07:33:59;;;;;;;0.10;0.10;;;;;;;19.35;100.00;96472.66;5025036;28;20104;-84
2023/08/14 07:36:45;;;;;;;0.10;0.10;;;;;;;19.39;100.00;96479.09;5010764;28;20045;-83
2023/08/14 07:39:30;;;;;;;0.10;0.10;;;;;;;19.55;100.00;96486.91;5027890;28;20136;-85
2023/08/14 07:42:16;;;;;;;0.10;0.10;;;;;;;19.67;100.00;96484.47;5027160;28;20048;-83
2023/08/14 07:45:02;;;;;;;0.00;0.00;;;;;;;19.70;100.00;96471.13;5016209;28;20044;-83
2023/08/14 07:47:48;;;;;;;0.10;0.10;;;;;;;19.80;100.00;96464.63;5025700;28;20447;-83
2023/08/14 07:50:36;;;;;;;0.10;0.10;;;;;;;19.93;100.00;96460.28;5026607;28;20094;-83
2023/08/14 07:53:22;;;;;;;0.10;0.10;;;;;;;20.01;100.00;96471.19;5024415;28;20477;-81
2023/08/14 07:56:08;;;;;;;0.10;0.10;;;;;;;20.03;100.00;96481.75;5025265;28;20043;-83
2023/08/14 07:58:53;;;;;;;0.10;0.10;;;;;;;20.30;100.00;96487.03;5026105;28;20530;-85
2023/08/14 08:01:41;;;;;;;0.10;0.10;;;;;;;20.50;100.00;96495.84;5025080;28;20555;-82
2023/08/14 08:04:29;;;;;;;0.10;0.10;;;;;;;20.62;100.00;96498.78;5013617;28;20371;-86
2023/08/14 08:07:15;;;;;;;0.10;0.10;;;;;;;20.82;100.00;96508.31;5024442;28;20365;-85
2023/08/14 08:10:01;;;;;;;0.10;0.10;;;;;;;20.94;100.00;96505.81;5024330;28;20084;-83
2023/08/14 08:12:47;;;;;;;0.10;0.10;;;;;;;21.16;100.00;96513.09;5025248;28;20132;-84
2023/08/14 08:15:33;;;;;;;0.10;0.10;;;;;;;21.35;100.00;96523.75;5025496;28;20043;-85
2023/08/14 08:18:19;;;;;;;0.10;0.10;;;;;;;21.48;100.00;96524.75;5023805;28;20080;-84
2023/08/14 08:21:05;;;;;;;0.10;0.10;;;;;;;21.98;100.00;96517.78;5025668;28;20457;-83
2023/08/14 08:23:51;;;;;;;0.10;0.10;;;;;;;22.26;100.00;96525.66;5023725;28;20045;-85
2023/08/14 08:26:36;;;;;;;0.10;0.10;;;;;;;22.61;100.00;96539.25;5024294;28;20360;-83
2023/08/14 08:29:22;;;;;;;0.10;0.10;;;;;;;22.56;100.00;96529.28;5025653;28;20036;-83
2023/08/14 08:32:08;;;;;;;0.10;0.10;;;;;;;22.53;100.00;96517.13;5010236;28;20071;-85
2023/08/14 08:34:55;;;;;;;0.10;0.10;;;;;;;22.67;100.00;96514.22;5023813;28;20078;-83
2023/08/14 08:37:41;;;;;;;0.10;0.10;;;;;;;22.92;100.00;96518.00;5008894;28;20385;-83
2023/08/14 08:40:27;;;;;;;0.10;0.10;;;;;;;23.04;100.00;96517.34;5025335;28;20505;-82
2023/08/14 08:43:15;;;;;;;0.08;0.08;;;;;;;22.77;100.00;96526.69;5023573;28;20143;-84
2023/08/14 08:46:05;;;;;;;0.10;0.10;;;;;;;23.37;100.00;96522.97;5022308;28;20048;-84
2023/08/14 08:48:51;;;;;;;0.10;0.10;;;;;;;23.14;100.00;96516.97;5020387;28;20453;-84
2023/08/14 08:51:39;;;;;;;0.20;0.20;;;;;;;22.99;100.00;96514.78;5021927;28;20693;-85
2023/08/14 08:54:27;;;;;;;0.10;0.10;;;;;;;23.10;100.00;96517.94;5023696;28;20029;-81
2023/08/14 08:57:14;;;;;;;0.10;0.10;;;;;;;23.00;100.00;96514.44;5023130;28;20041;-84
2023/08/14 09:00:01;;;;;;;0.10;0.10;;;;;;;23.16;100.00;96522.09;5012126;28;20140;-84
2023/08/14 09:02:46;;;;;;;0.10;0.10;;;;;;;23.25;100.00;96529.09;5023090;28;20041;-82
2023/08/14 09:05:33;;;;;;;0.17;0.17;;;;;;;22.85;100.00;96539.53;5024284;28;20037;-83
2023/08/14 09:08:19;;;;;;;0.10;0.10;;;;;;;22.74;100.00;96532.81;5019852;28;20049;-82
2023/08/14 09:11:04;;;;;;;0.10;0.10;;;;;;;22.42;100.00;96532.22;5024783;28;20148;-84
2023/08/14 09:13:50;;;;;;;0.10;0.10;;;;;;;22.15;100.00;96527.09;5026625;28;20033;-82
2023/08/14 09:16:36;;;;;;;0.13;0.13;;;;;;;22.25;100.00;96538.47;5022991;28;20194;-83
2023/08/14 09:19:22;;;;;;;0.10;0.10;;;;;;;22.57;100.00;96543.72;5023992;28;20095;-84
2023/08/14 09:22:08;;;;;;;0.08;0.08;;;;;;;22.98;100.00;96526.81;5010795;28;20824;-85
2023/08/14 09:24:55;;;;;;;0.10;0.10;;;;;;;22.96;100.00;96526.38;5024150;28;20929;-84
2023/08/14 09:27:44;;;;;;;0.10;0.10;;;;;;;23.00;100.00;96524.56;5024484;28;20041;-82
2023/08/14 09:30:32;;;;;;;0.10;0.10;;;;;;;23.30;100.00;96528.13;5022169;28;20357;-84
2023/08/14 09:33:19;;;;;;;0.10;0.10;;;;;;;23.72;100.00;96528.25;5024482;28;20048;-83
2023/08/14 09:36:05;;;;;;;0.10;0.10;;;;;;;24.26;100.00;96520.94;5029393;28;20037;-81
2023/08/14 09:38:51;;;;;;;0.10;0.10;;;;;;;24.33;100.00;96521.22;5027342;28;20542;-83
2023/08/14 09:41:37;;;;;;;0.10;0.10;;;;;;;23.63;100.00;96525.56;5026125;28;20079;-83
2023/08/14 09:44:23;;;;;;;0.10;0.10;;;;;;;23.26;100.00;96527.97;5027939;28;20037;-83
2023/08/14 09:47:13;;;;;;;0.10;0.10;;;;;;;22.88;100.00;96518.97;5014559;28;20385;-81
2023/08/14 09:50:00;;;;;;;0.10;0.10;;;;;;;22.89;100.00;96517.88;5026668;28;20285;-81
2023/08/14 09:52:46;;;;;;;0.10;0.10;;;;;;;22.97;100.00;96514.31;5014443;28;20037;-84
2023/08/14 09:55:33;;;;;;;0.15;0.15;;;;;;;23.33;100.00;96519.28;5028018;28;20033;-84
2023/08/14 09:58:20;;;;;;;0.10;0.10;;;;;;;23.72;100.00;96514.59;5027132;28;20080;-82
2023/08/14 10:01:07;;;;;;;0.10;0.10;;;;;;;23.80;100.00;96513.72;5027158;28;20250;-83
2023/08/14 10:03:55;;;;;;;0.10;0.10;;;;;;;23.27;100.00;96515.16;5027397;28;20128;-83
2023/08/14 10:06:41;;;;;;;0.10;0.10;;;;;;;23.56;100.00;96511.59;5027812;28;20567;-85
2023/08/14 10:09:30;;;;;;;0.10;0.10;;;;;;;23.43;100.00;96510.72;5017035;28;20037;-85
2023/08/14 10:12:21;;;;;;;0.10;0.10;;;;;;;23.38;100.00;96521.84;5019095;28;20037;-82
2023/08/14 10:15:10;;;;;;;0.13;0.13;;;;;;;23.53;100.00;96517.75;5027567;28;20654;-84
2023/08/14 10:17:59;;;;;;;0.10;0.10;;;;;;;23.86;100.00;96520.59;5024357;28;20096;-84
2023/08/14 10:20:48;;;;;;;0.08;0.08;;;;;;;24.34;100.00;96516.53;5027862;28;20454;-86
2023/08/14 10:23:35;;;;;;;0.10;0.10;;;;;;;24.78;100.00;96504.03;5027442;28;20055;-84
2023/08/14 10:26:22;;;;;;;0.10;0.10;;;;;;;25.49;100.00;96500.13;5023682;28;20150;-85
2023/08/14 10:29:08;;;;;;;0.10;0.10;;;;;;;25.75;100.00;96506.06;5015360;28;20159;-83
2023/08/14 10:31:54;;;;;;;0.20;0.20;;;;;;;26.14;100.00;96505.63;5025340;28;20033;-84
2023/08/14 10:34:42;;;;;;;0.15;0.15;;;;;;;26.02;100.00;96501.00;5027270;28;20044;-82
2023/08/14 10:37:42;;;;;;;0.10;0.10;;;;;;;27.44;100.00;96493.81;5023903;28;20047;-85
2023/08/14 10:40:28;;;;;;;0.10;0.10;;;;;;;26.77;100.00;96495.66;5024606;28;20128;-82
2023/08/14 10:43:13;;;;;;;0.10;0.10;;;;;;;26.53;100.00;96487.53;5024376;28;20048;-85
2023/08/14 10:46:06;;;;;;;0.10;0.10;;;;;;;26.44;100.00;96490.44;4996626;28;20068;-83
2023/08/14 10:48:52;;;;;;;0.10;0.10;;;;;;;25.97;100.00;96509.44;5024168;28;20041;-85
2023/08/14 10:51:40;;;;;;;0.10;0.10;;;;;;;24.90;100.00;96511.47;5024851;28;20038;-83
2023/08/14 10:54:36;;;;;;;0.00;0.00;;;;;;;24.84;100.00;96523.78;5026968;28;20029;-84
2023/08/14 10:57:28;;;;;;;0.10;0.10;;;;;;;25.27;100.00;96529.56;5023518;28;20120;-83
2023/08/14 11:00:25;;;;;;;0.10;0.10;;;;;;;25.40;100.00;96529.59;5020349;28;20073;-82
2023/08/14 11:03:11;;;;;;;0.10;0.10;;;;;;;25.22;100.00;96538.03;5023159;28;20049;-85
2023/08/14 11:05:57;;;;;;;0.10;0.10;;;;;;;24.50;100.00;96538.59;5017489;28;20520;-84
2023/08/14 11:08:44;;;;;;;0.00;0.00;;;;;;;24.10;100.00;96548.06;5025286;28;20040;-84
2023/08/14 11:11:30;;;;;;;0.10;0.10;;;;;;;24.04;100.00;96538.47;5027531;28;20504;-85
2023/08/14 11:14:17;;;;;;;0.03;0.03;;;;;;;24.24;100.00;96553.28;5011203;28;20549;-82
2023/08/14 11:17:03;;;;;;;0.10;0.10;;;;;;;24.49;100.00;96546.00;5025413;28;20041;-85
2023/08/14 11:19:49;;;;;;;0.00;0.00;;;;;;;24.47;100.00;96555.69;5024362;28;20083;-85
2023/08/14 11:22:35;;;;;;;0.10;0.10;;;;;;;24.08;100.00;96555.81;5023544;28;20037;-81
2023/08/14 11:25:21;;;;;;;0.10;0.10;;;;;;;23.96;100.00;96554.94;5023475;28;20060;-84
2023/08/14 11:28:07;;;;;;;0.10;0.10;;;;;;;23.79;100.00;96566.78;5022663;28;20044;-84
2023/08/14 11:30:53;;;;;;;0.10;0.10;;;;;;;23.90;100.00;96562.53;5021641;28;20541;-84
2023/08/14 11:33:40;;;;;;;0.00;0.00;;;;;;;24.30;100.00;96570.28;5023550;28;20358;-83
2023/08/14 11:36:26;;;;;;;0.10;0.10;;;;;;;24.24;100.00;96563.41;5028490;28;20055;-84
2023/08/14 11:39:12;;;;;;;0.00;0.00;;;;;;;23.99;100.00;96555.06;5036553;28;20379;-82
2023/08/14 11:41:58;;;;;;;0.10;0.10;;;;;;;24.11;100.00;96555.13;5034875;28;20060;-82
2023/08/14 11:44:43;;;;;;;0.10;0.10;;;;;;;24.02;100.00;96565.34;5024274;28;20465;-85
2023/08/14 11:47:31;;;;;;;0.10;0.10;;;;;;;24.45;100.00;96566.97;5025367;28;20397;-86
2023/08/14 11:50:18;;;;;;;0.10;0.10;;;;;;;24.43;100.00;96571.94;5026077;28;20077;-82
2023/08/14 11:53:04;;;;;;;0.00;0.00;;;;;;;24.66;100.00;96573.19;5009457;28;20147;-87
2023/08/14 11:55:50;;;;;;;0.00;0.00;;;;;;;24.07;100.00;96572.53;5024481;28;20037;-87
2023/08/14 11:58:39;;;;;;;0.10;0.10;;;;;;;24.34;100.00;96574.75;5012760;28;20446;-86
2023/08/14 12:01:25;;;;;;;0.08;0.08;;;;;;;24.89;100.00;96578.28;5022937;28;20045;-83
2023/08/14 12:04:11;;;;;;;0.00;0.00;;;;;;;24.50;100.00;96577.69;5024267;28;20068;-86
2023/08/14 12:06:57;;;;;;;0.10;0.10;;;;;;;24.26;100.00;96574.81;5011561;28;20037;-86
2023/08/14 12:09:42;;;;;;;0.10;0.10;;;;;;;24.22;100.00;96579.34;5023605;28;20041;-85
2023/08/14 12:12:28;;;;;;;0.03;0.03;;;;;;;24.21;100.00;96584.03;5023749;28;20044;-86
2023/08/14 12:15:21;;;;;;;0.10;0.10;;;;;;;24.19;100.00;96575.34;5023195;28;20037;-85
2023/08/14 12:18:11;;;;;;;0.10;0.10;;;;;;;24.25;100.00;96568.53;5022730;28;20052;-84
2023/08/14 12:21:00;;;;;;;0.00;0.00;;;;;;;24.34;100.00;96560.28;5023166;28;20146;-85
2023/08/14 12:23:53;;;;;;;0.05;0.05;;;;;;;24.17;100.00;96559.28;5024929;28;20099;-87
2023/08/14 12:26:42;;;;;;;0.10;0.10;;;;;;;24.05;100.00;96553.75;5025104;28;20045;-86
2023/08/14 12:29:28;;;;;;;0.10;0.10;;;;;;;24.13;100.00;96541.94;5009785;28;20662;-86
2023/08/14 12:32:14;;;;;;;0.10;0.10;;;;;;;23.97;100.00;96535.50;5023138;28;20613;-86
2023/08/14 12:35:00;;;;;;;0.03;0.03;;;;;;;24.26;100.00;96520.13;5022160;28;20272;-83
2023/08/14 12:37:46;;;;;;;0.00;0.00;;;;;;;24.42;100.00;96513.72;5025280;28;20029;-87
2023/08/14 12:40:32;;;;;;;0.10;0.10;;;;;;;24.33;100.00;96498.53;5021050;28;20077;-84
2023/08/14 12:43:21;;;;;;;0.10;0.10;;;;;;;24.55;100.00;96495.44;5023312;28;20120;-84
2023/08/14 12:46:11;;;;;;;0.10;0.10;;;;;;;24.76;100.00;96481.69;5008277;28;20046;-84
2023/08/14 12:48:56;;;;;;;0.10;0.10;;;;;;;25.19;100.00;96475.72;5022424;28;20084;-88
2023/08/14 12:51:42;;;;;;;0.10;0.10;;;;;;;25.47;100.00;96461.34;5023866;28;20037;-87
2023/08/14 12:54:28;;;;;;;0.10;0.10;;;;;;;25.21;100.00;96476.19;5026094;28;20036;-86
2023/08/14 12:57:14;;;;;;;0.00;0.00;;;;;;;25.50;100.00;96482.56;5022714;28;20523;-85